This is the latest recevied weather packets stored in our database for station/object SP1GDK-10. If no packets are shown the sender has not sent any weather packets the latest 10 day(s).
| Time | Temp. | Humidity | Pressure | Rain* | Wind** | Luminosity | Snow |
|---|---|---|---|---|---|---|---|
| 1777529954 | 10° C | 57% | 1033.1 hPa | - | - | - | - |
| 1777526355 | 7.22° C | 70% | 1033.3 hPa | - | - | - | - |
| 1777513153 | 5.56° C | 67% | 1033.1 hPa | - | - | - | - |
| 1777509555 | 5.56° C | 69% | 1033.1 hPa | - | - | - | - |
| 1777504754 | 6.11° C | 56% | 1033.4 hPa | - | - | - | - |
| 1777493953 | 8.33° C | 43% | 1032.8 hPa | - | - | - | - |
| 1777491556 | 9.44° C | 42% | 1032.6 hPa | - | - | - | - |
| 1777489754 | 9.44° C | 40% | 1032.4 hPa | - | - | - | - |
| 1777485555 | 11.11° C | 36% | 1031.5 hPa | - | - | - | - |
| 1777474154 | 13.89° C | 30% | 1031.2 hPa | - | - | - | - |
| 1777473558 | 13.89° C | 30% | 1031.1 hPa | - | - | - | - |
| 1777463352 | 14.44° C | 29% | 1031.4 hPa | - | - | - | - |
| 1777462153 | 14.44° C | 30% | 1031.5 hPa | - | - | - | - |
| 1777460960 | 13.89° C | 30% | 1031.7 hPa | - | - | - | - |
| 1777452556 | 10.56° C | 36% | 1032.3 hPa | - | - | - | - |
| 1777450759 | 10° C | 37% | 1032.2 hPa | - | - | - | - |
| 1777444756 | 8.89° C | 45% | 1032.1 hPa | - | - | - | - |
| 1777444156 | 8.89° C | 46% | 1032 hPa | - | - | - | - |
| 1777427353 | 3.89° C | 86% | 1031 hPa | - | - | - | - |
| 1777423159 | 4.44° C | 94% | 1030.6 hPa | - | - | - | - |
| 1777417156 | 6.11° C | 70% | 1030.2 hPa | - | - | - | - |
| 1777413557 | 6.67° C | 62% | 1029.6 hPa | - | - | - | - |
| 1777411757 | 7.22° C | 59% | 1029.1 hPa | - | - | - | - |
| 1777411167 | 7.22° C | 60% | 1029 hPa | - | - | - | - |
| 1777409352 | 7.22° C | 59% | 1028.8 hPa | - | - | - | - |
* Rain since midnight (hover to see other rain measurements)
** Current wind speed in m/s (hover to see current wind gust speed)